sensor_id;sensor_type;location;lat;lon;timestamp;P1;durP1;ratioP1;P2;durP2;ratioP2
22172;SDS011;11252;50.596;17.648;2022-09-09T00:00:25;7.83;;;6.87;;
22172;SDS011;11252;50.596;17.648;2022-09-09T00:03:08;9.50;;;6.13;;
22172;SDS011;11252;50.596;17.648;2022-09-09T00:05:44;7.77;;;7.03;;
22172;SDS011;11252;50.596;17.648;2022-09-09T00:08:19;7.43;;;6.63;;
22172;SDS011;11252;50.596;17.648;2022-09-09T00:10:54;7.60;;;6.87;;
22172;SDS011;11252;50.596;17.648;2022-09-09T00:13:34;8.33;;;7.73;;
22172;SDS011;11252;50.596;17.648;2022-09-09T00:16:25;8.13;;;7.43;;
22172;SDS011;11252;50.596;17.648;2022-09-09T00:22:15;9.13;;;8.37;;
22172;SDS011;11252;50.596;17.648;2022-09-09T00:24:57;9.13;;;8.33;;
22172;SDS011;11252;50.596;17.648;2022-09-09T00:27:46;8.03;;;7.53;;
22172;SDS011;11252;50.596;17.648;2022-09-09T00:30:23;8.70;;;8.00;;
22172;SDS011;11252;50.596;17.648;2022-09-09T00:32:54;8.83;;;8.00;;
22172;SDS011;11252;50.596;17.648;2022-09-09T00:35:31;8.70;;;7.90;;
22172;SDS011;11252;50.596;17.648;2022-09-09T00:47:11;8.70;;;8.10;;
22172;SDS011;11252;50.596;17.648;2022-09-09T00:52:42;10.07;;;8.80;;
22172;SDS011;11252;50.596;17.648;2022-09-09T00:55:26;9.33;;;8.43;;
22172;SDS011;11252;50.596;17.648;2022-09-09T00:58:01;10.13;;;9.10;;
22172;SDS011;11252;50.596;17.648;2022-09-09T01:00:30;9.80;;;9.00;;
22172;SDS011;11252;50.596;17.648;2022-09-09T01:11:24;10.70;;;9.83;;
22172;SDS011;11252;50.596;17.648;2022-09-09T01:13:58;10.40;;;9.60;;
22172;SDS011;11252;50.596;17.648;2022-09-09T01:16:36;10.73;;;9.70;;
22172;SDS011;11252;50.596;17.648;2022-09-09T01:19:04;10.07;;;9.27;;
22172;SDS011;11252;50.596;17.648;2022-09-09T01:21:50;11.07;;;10.17;;
22172;SDS011;11252;50.596;17.648;2022-09-09T01:25:02;10.80;;;9.80;;
22172;SDS011;11252;50.596;17.648;2022-09-09T01:27:49;10.10;;;9.20;;
22172;SDS011;11252;50.596;17.648;2022-09-09T01:30:19;10.67;;;9.50;;
22172;SDS011;11252;50.596;17.648;2022-09-09T01:32:49;12.13;;;9.00;;
22172;SDS011;11252;50.596;17.648;2022-09-09T01:37:57;10.67;;;9.57;;
22172;SDS011;11252;50.596;17.648;2022-09-09T01:40:24;10.67;;;8.77;;
22172;SDS011;11252;50.596;17.648;2022-09-09T01:42:53;9.93;;;9.13;;
22172;SDS011;11252;50.596;17.648;2022-09-09T01:45:21;14.93;;;10.53;;
22172;SDS011;11252;50.596;17.648;2022-09-09T01:47:53;12.43;;;9.37;;
22172;SDS011;11252;50.596;17.648;2022-09-09T01:50:21;12.20;;;9.50;;
22172;SDS011;11252;50.596;17.648;2022-09-09T01:52:50;10.50;;;9.60;;
22172;SDS011;11252;50.596;17.648;2022-09-09T01:55:33;10.13;;;9.17;;
22172;SDS011;11252;50.596;17.648;2022-09-09T02:01:06;10.90;;;9.53;;
22172;SDS011;11252;50.596;17.648;2022-09-09T02:03:47;10.77;;;9.77;;
22172;SDS011;11252;50.596;17.648;2022-09-09T02:06:25;12.03;;;11.00;;
22172;SDS011;11252;50.596;17.648;2022-09-09T02:08:59;15.67;;;12.43;;
22172;SDS011;11252;50.596;17.648;2022-09-09T02:11:30;12.53;;;11.20;;
22172;SDS011;11252;50.596;17.648;2022-09-09T02:14:22;12.47;;;11.40;;
22172;SDS011;11252;50.596;17.648;2022-09-09T02:16:53;13.43;;;12.27;;
22172;SDS011;11252;50.596;17.648;2022-09-09T02:19:35;13.80;;;12.43;;
22172;SDS011;11252;50.596;17.648;2022-09-09T02:22:07;14.63;;;12.27;;
22172;SDS011;11252;50.596;17.648;2022-09-09T02:24:36;12.60;;;11.50;;
22172;SDS011;11252;50.596;17.648;2022-09-09T02:27:06;11.53;;;10.47;;
22172;SDS011;11252;50.596;17.648;2022-09-09T02:29:41;14.07;;;11.30;;
22172;SDS011;11252;50.596;17.648;2022-09-09T02:32:11;12.43;;;11.27;;
22172;SDS011;11252;50.596;17.648;2022-09-09T02:34:45;12.97;;;10.50;;
22172;SDS011;11252;50.596;17.648;2022-09-09T02:37:17;13.17;;;9.53;;
22172;SDS011;11252;50.596;17.648;2022-09-09T02:39:46;11.30;;;10.27;;
22172;SDS011;11252;50.596;17.648;2022-09-09T02:42:14;10.57;;;9.60;;
22172;SDS011;11252;50.596;17.648;2022-09-09T02:44:41;10.83;;;9.93;;
22172;SDS011;11252;50.596;17.648;2022-09-09T02:50:13;10.40;;;9.60;;
22172;SDS011;11252;50.596;17.648;2022-09-09T02:55:45;9.17;;;8.37;;
22172;SDS011;11252;50.596;17.648;2022-09-09T02:58:30;10.93;;;8.97;;
22172;SDS011;11252;50.596;17.648;2022-09-09T03:00:58;10.33;;;9.43;;
22172;SDS011;11252;50.596;17.648;2022-09-09T03:03:27;9.17;;;8.27;;
22172;SDS011;11252;50.596;17.648;2022-09-09T03:05:55;10.30;;;8.63;;
22172;SDS011;11252;50.596;17.648;2022-09-09T03:08:23;9.13;;;8.33;;
22172;SDS011;11252;50.596;17.648;2022-09-09T03:10:50;9.13;;;8.33;;
22172;SDS011;11252;50.596;17.648;2022-09-09T03:13:20;10.73;;;9.63;;
22172;SDS011;11252;50.596;17.648;2022-09-09T03:15:48;9.90;;;9.10;;
22172;SDS011;11252;50.596;17.648;2022-09-09T03:18:15;9.60;;;8.70;;
22172;SDS011;11252;50.596;17.648;2022-09-09T03:20:42;9.50;;;8.80;;
22172;SDS011;11252;50.596;17.648;2022-09-09T03:23:10;9.30;;;8.50;;
22172;SDS011;11252;50.596;17.648;2022-09-09T03:25:48;9.93;;;9.13;;
22172;SDS011;11252;50.596;17.648;2022-09-09T03:28:16;11.93;;;10.43;;
22172;SDS011;11252;50.596;17.648;2022-09-09T03:30:43;11.97;;;10.83;;
22172;SDS011;11252;50.596;17.648;2022-09-09T03:33:11;10.87;;;9.83;;
22172;SDS011;11252;50.596;17.648;2022-09-09T03:35:39;10.53;;;9.47;;
22172;SDS011;11252;50.596;17.648;2022-09-09T03:38:15;10.17;;;9.10;;
22172;SDS011;11252;50.596;17.648;2022-09-09T03:40:50;10.20;;;8.87;;
22172;SDS011;11252;50.596;17.648;2022-09-09T03:43:22;9.40;;;8.60;;
22172;SDS011;11252;50.596;17.648;2022-09-09T03:45:50;10.43;;;9.50;;
22172;SDS011;11252;50.596;17.648;2022-09-09T03:48:18;9.80;;;8.93;;
22172;SDS011;11252;50.596;17.648;2022-09-09T03:50:46;10.90;;;9.87;;
22172;SDS011;11252;50.596;17.648;2022-09-09T03:53:16;10.87;;;9.77;;
22172;SDS011;11252;50.596;17.648;2022-09-09T03:55:46;9.90;;;9.10;;
22172;SDS011;11252;50.596;17.648;2022-09-09T03:58:14;10.60;;;9.13;;
22172;SDS011;11252;50.596;17.648;2022-09-09T04:00:42;10.20;;;9.30;;
22172;SDS011;11252;50.596;17.648;2022-09-09T04:03:11;10.20;;;9.40;;
22172;SDS011;11252;50.596;17.648;2022-09-09T04:05:39;10.37;;;9.37;;
22172;SDS011;11252;50.596;17.648;2022-09-09T04:08:08;11.00;;;9.90;;
22172;SDS011;11252;50.596;17.648;2022-09-09T04:10:36;10.77;;;9.73;;
22172;SDS011;11252;50.596;17.648;2022-09-09T04:13:04;13.07;;;11.87;;
22172;SDS011;11252;50.596;17.648;2022-09-09T04:15:32;16.33;;;14.83;;
22172;SDS011;11252;50.596;17.648;2022-09-09T04:18:01;14.63;;;13.43;;
22172;SDS011;11252;50.596;17.648;2022-09-09T04:20:28;15.10;;;13.60;;
22172;SDS011;11252;50.596;17.648;2022-09-09T04:22:56;12.73;;;11.50;;
22172;SDS011;11252;50.596;17.648;2022-09-09T04:25:24;14.00;;;12.27;;
22172;SDS011;11252;50.596;17.648;2022-09-09T04:27:54;11.90;;;10.90;;
22172;SDS011;11252;50.596;17.648;2022-09-09T04:30:23;12.33;;;11.23;;
22172;SDS011;11252;50.596;17.648;2022-09-09T04:32:51;13.00;;;12.00;;
22172;SDS011;11252;50.596;17.648;2022-09-09T04:35:18;13.20;;;11.90;;
22172;SDS011;11252;50.596;17.648;2022-09-09T04:37:46;10.87;;;9.77;;
22172;SDS011;11252;50.596;17.648;2022-09-09T04:40:15;14.30;;;12.97;;
22172;SDS011;11252;50.596;17.648;2022-09-09T04:42:42;14.73;;;13.23;;
22172;SDS011;11252;50.596;17.648;2022-09-09T04:45:10;12.40;;;10.60;;
22172;SDS011;11252;50.596;17.648;2022-09-09T04:47:38;13.17;;;11.03;;
22172;SDS011;11252;50.596;17.648;2022-09-09T04:50:05;9.83;;;8.93;;
22172;SDS011;11252;50.596;17.648;2022-09-09T04:52:34;10.53;;;9.70;;
22172;SDS011;11252;50.596;17.648;2022-09-09T04:55:02;10.70;;;9.67;;
22172;SDS011;11252;50.596;17.648;2022-09-09T04:57:30;11.17;;;10.07;;
22172;SDS011;11252;50.596;17.648;2022-09-09T04:59:58;11.27;;;10.10;;
22172;SDS011;11252;50.596;17.648;2022-09-09T05:02:26;10.80;;;9.80;;
22172;SDS011;11252;50.596;17.648;2022-09-09T05:04:56;14.80;;;9.73;;
22172;SDS011;11252;50.596;17.648;2022-09-09T05:07:24;10.20;;;9.27;;
22172;SDS011;11252;50.596;17.648;2022-09-09T05:09:54;11.33;;;9.83;;
22172;SDS011;11252;50.596;17.648;2022-09-09T05:12:22;14.10;;;12.93;;
22172;SDS011;11252;50.596;17.648;2022-09-09T05:14:52;13.23;;;12.00;;
22172;SDS011;11252;50.596;17.648;2022-09-09T05:17:19;14.93;;;13.43;;
22172;SDS011;11252;50.596;17.648;2022-09-09T05:19:48;15.27;;;13.77;;
22172;SDS011;11252;50.596;17.648;2022-09-09T05:22:21;11.47;;;10.33;;
22172;SDS011;11252;50.596;17.648;2022-09-09T05:24:49;13.37;;;12.27;;
22172;SDS011;11252;50.596;17.648;2022-09-09T05:27:20;15.10;;;13.10;;
22172;SDS011;11252;50.596;17.648;2022-09-09T05:29:48;11.70;;;10.37;;
22172;SDS011;11252;50.596;17.648;2022-09-09T05:32:15;8.77;;;7.70;;
22172;SDS011;11252;50.596;17.648;2022-09-09T05:34:43;7.60;;;7.00;;
22172;SDS011;11252;50.596;17.648;2022-09-09T05:37:10;11.37;;;8.20;;
22172;SDS011;11252;50.596;17.648;2022-09-09T05:39:38;12.63;;;9.40;;
22172;SDS011;11252;50.596;17.648;2022-09-09T05:42:06;15.27;;;11.63;;
22172;SDS011;11252;50.596;17.648;2022-09-09T05:44:33;6.53;;;5.93;;
22172;SDS011;11252;50.596;17.648;2022-09-09T05:47:01;8.00;;;7.30;;
22172;SDS011;11252;50.596;17.648;2022-09-09T05:49:29;6.00;;;5.50;;
22172;SDS011;11252;50.596;17.648;2022-09-09T05:51:56;7.33;;;5.07;;
22172;SDS011;11252;50.596;17.648;2022-09-09T05:54:23;4.90;;;4.50;;
22172;SDS011;11252;50.596;17.648;2022-09-09T05:56:51;4.53;;;4.13;;
22172;SDS011;11252;50.596;17.648;2022-09-09T05:59:20;4.43;;;4.03;;
22172;SDS011;11252;50.596;17.648;2022-09-09T06:01:48;3.90;;;3.50;;
22172;SDS011;11252;50.596;17.648;2022-09-09T06:04:15;3.80;;;3.30;;
22172;SDS011;11252;50.596;17.648;2022-09-09T06:06:43;3.10;;;2.90;;
22172;SDS011;11252;50.596;17.648;2022-09-09T06:09:10;3.67;;;3.30;;
22172;SDS011;11252;50.596;17.648;2022-09-09T06:11:39;3.40;;;3.00;;
22172;SDS011;11252;50.596;17.648;2022-09-09T06:14:07;2.93;;;2.73;;
22172;SDS011;11252;50.596;17.648;2022-09-09T06:16:35;4.20;;;2.70;;
22172;SDS011;11252;50.596;17.648;2022-09-09T06:19:04;3.40;;;3.10;;
22172;SDS011;11252;50.596;17.648;2022-09-09T06:21:35;3.03;;;2.83;;
22172;SDS011;11252;50.596;17.648;2022-09-09T06:24:06;3.77;;;2.40;;
22172;SDS011;11252;50.596;17.648;2022-09-09T06:26:35;2.97;;;2.27;;
22172;SDS011;11252;50.596;17.648;2022-09-09T06:29:09;2.40;;;2.20;;
22172;SDS011;11252;50.596;17.648;2022-09-09T06:31:37;3.27;;;2.40;;
22172;SDS011;11252;50.596;17.648;2022-09-09T06:34:05;6.67;;;2.33;;
22172;SDS011;11252;50.596;17.648;2022-09-09T06:36:34;2.70;;;2.20;;
22172;SDS011;11252;50.596;17.648;2022-09-09T06:39:04;4.30;;;2.03;;
22172;SDS011;11252;50.596;17.648;2022-09-09T06:41:39;3.97;;;1.90;;
22172;SDS011;11252;50.596;17.648;2022-09-09T06:44:07;2.40;;;2.10;;
22172;SDS011;11252;50.596;17.648;2022-09-09T06:46:41;2.90;;;2.27;;
22172;SDS011;11252;50.596;17.648;2022-09-09T06:49:09;2.40;;;1.80;;
22172;SDS011;11252;50.596;17.648;2022-09-09T06:51:37;3.37;;;2.13;;
22172;SDS011;11252;50.596;17.648;2022-09-09T06:54:10;1.87;;;1.77;;
22172;SDS011;11252;50.596;17.648;2022-09-09T06:56:39;5.20;;;2.40;;
22172;SDS011;11252;50.596;17.648;2022-09-09T06:59:10;3.70;;;1.83;;
22172;SDS011;11252;50.596;17.648;2022-09-09T07:01:39;1.93;;;1.83;;
22172;SDS011;11252;50.596;17.648;2022-09-09T07:04:08;3.53;;;1.40;;
22172;SDS011;11252;50.596;17.648;2022-09-09T07:06:38;2.03;;;1.47;;
22172;SDS011;11252;50.596;17.648;2022-09-09T07:09:11;2.63;;;1.70;;
22172;SDS011;11252;50.596;17.648;2022-09-09T07:11:42;4.27;;;1.70;;
22172;SDS011;11252;50.596;17.648;2022-09-09T07:14:14;3.37;;;1.83;;
22172;SDS011;11252;50.596;17.648;2022-09-09T07:16:42;5.65;;;1.70;;
22172;SDS011;11252;50.596;17.648;2022-09-09T07:19:10;4.20;;;1.53;;
22172;SDS011;11252;50.596;17.648;2022-09-09T07:21:39;2.53;;;1.73;;
22172;SDS011;11252;50.596;17.648;2022-09-09T07:24:07;2.08;;;1.55;;
22172;SDS011;11252;50.596;17.648;2022-09-09T07:26:39;1.52;;;1.30;;
22172;SDS011;11252;50.596;17.648;2022-09-09T07:29:07;1.70;;;1.15;;
22172;SDS011;11252;50.596;17.648;2022-09-09T07:31:36;4.88;;;1.35;;
22172;SDS011;11252;50.596;17.648;2022-09-09T07:34:04;1.77;;;1.30;;
22172;SDS011;11252;50.596;17.648;2022-09-09T07:36:33;1.95;;;1.40;;
22172;SDS011;11252;50.596;17.648;2022-09-09T07:39:03;1.45;;;1.35;;
22172;SDS011;11252;50.596;17.648;2022-09-09T07:41:33;3.20;;;1.10;;
22172;SDS011;11252;50.596;17.648;2022-09-09T07:44:07;2.80;;;1.35;;
22172;SDS011;11252;50.596;17.648;2022-09-09T07:46:37;2.88;;;1.30;;
22172;SDS011;11252;50.596;17.648;2022-09-09T07:49:08;2.40;;;1.10;;
22172;SDS011;11252;50.596;17.648;2022-09-09T07:51:38;1.17;;;1.00;;
22172;SDS011;11252;50.596;17.648;2022-09-09T07:54:08;2.17;;;1.17;;
22172;SDS011;11252;50.596;17.648;2022-09-09T07:56:38;1.55;;;1.30;;
22172;SDS011;11252;50.596;17.648;2022-09-09T07:59:07;3.88;;;1.10;;
22172;SDS011;11252;50.596;17.648;2022-09-09T08:01:38;2.55;;;1.25;;
22172;SDS011;11252;50.596;17.648;2022-09-09T08:04:11;1.83;;;1.30;;
22172;SDS011;11252;50.596;17.648;2022-09-09T08:06:47;1.33;;;1.13;;
22172;SDS011;11252;50.596;17.648;2022-09-09T08:09:19;3.03;;;0.98;;
22172;SDS011;11252;50.596;17.648;2022-09-09T08:11:48;1.95;;;1.20;;
22172;SDS011;11252;50.596;17.648;2022-09-09T08:14:15;3.83;;;1.17;;
22172;SDS011;11252;50.596;17.648;2022-09-09T08:16:44;2.88;;;1.42;;
22172;SDS011;11252;50.596;17.648;2022-09-09T08:19:13;4.07;;;1.25;;
22172;SDS011;11252;50.596;17.648;2022-09-09T08:21:44;3.80;;;2.40;;
22172;SDS011;11252;50.596;17.648;2022-09-09T08:24:12;1.50;;;1.23;;
22172;SDS011;11252;50.596;17.648;2022-09-09T08:26:44;4.25;;;1.42;;
22172;SDS011;11252;50.596;17.648;2022-09-09T08:29:14;3.22;;;1.30;;
22172;SDS011;11252;50.596;17.648;2022-09-09T08:31:43;2.33;;;1.20;;
22172;SDS011;11252;50.596;17.648;2022-09-09T08:34:15;6.18;;;1.30;;
22172;SDS011;11252;50.596;17.648;2022-09-09T08:36:47;1.40;;;1.30;;
22172;SDS011;11252;50.596;17.648;2022-09-09T08:39:16;2.05;;;1.33;;
22172;SDS011;11252;50.596;17.648;2022-09-09T08:41:52;1.45;;;1.27;;
22172;SDS011;11252;50.596;17.648;2022-09-09T08:50:25;3.50;;;1.17;;
22172;SDS011;11252;50.596;17.648;2022-09-09T08:55:51;3.67;;;1.00;;
22172;SDS011;11252;50.596;17.648;2022-09-09T08:58:26;2.13;;;1.00;;
22172;SDS011;11252;50.596;17.648;2022-09-09T09:06:40;2.47;;;1.42;;
22172;SDS011;11252;50.596;17.648;2022-09-09T09:11:58;1.00;;;0.80;;
22172;SDS011;11252;50.596;17.648;2022-09-09T09:14:31;1.50;;;1.10;;
22172;SDS011;11252;50.596;17.648;2022-09-09T09:17:04;2.97;;;1.13;;
22172;SDS011;11252;50.596;17.648;2022-09-09T09:19:38;1.85;;;0.90;;
22172;SDS011;11252;50.596;17.648;2022-09-09T09:22:20;4.97;;;1.45;;
22172;SDS011;11252;50.596;17.648;2022-09-09T09:27:34;1.85;;;1.13;;
22172;SDS011;11252;50.596;17.648;2022-09-09T09:30:15;2.47;;;1.10;;
22172;SDS011;11252;50.596;17.648;2022-09-09T09:33:00;1.30;;;1.08;;
22172;SDS011;11252;50.596;17.648;2022-09-09T09:35:40;1.38;;;0.90;;
22172;SDS011;11252;50.596;17.648;2022-09-09T09:38:25;6.75;;;3.55;;
22172;SDS011;11252;50.596;17.648;2022-09-09T09:41:14;1.90;;;0.93;;
22172;SDS011;11252;50.596;17.648;2022-09-09T09:43:42;1.73;;;0.80;;
22172;SDS011;11252;50.596;17.648;2022-09-09T09:46:21;1.42;;;1.00;;
22172;SDS011;11252;50.596;17.648;2022-09-09T09:49:02;1.05;;;0.80;;
22172;SDS011;11252;50.596;17.648;2022-09-09T09:51:32;2.10;;;0.60;;
22172;SDS011;11252;50.596;17.648;2022-09-09T09:56:40;2.15;;;1.00;;
22172;SDS011;11252;50.596;17.648;2022-09-09T10:02:06;6.10;;;1.23;;
22172;SDS011;11252;50.596;17.648;2022-09-09T10:04:39;1.90;;;0.80;;
22172;SDS011;11252;50.596;17.648;2022-09-09T10:07:11;1.73;;;0.75;;
22172;SDS011;11252;50.596;17.648;2022-09-09T10:09:40;4.28;;;1.58;;
22172;SDS011;11252;50.596;17.648;2022-09-09T10:23:28;3.05;;;0.60;;
22172;SDS011;11252;50.596;17.648;2022-09-09T10:26:01;1.98;;;0.95;;
22172;SDS011;11252;50.596;17.648;2022-09-09T10:37:22;2.78;;;1.02;;
22172;SDS011;11252;50.596;17.648;2022-09-09T10:42:48;2.60;;;1.70;;
22172;SDS011;11252;50.596;17.648;2022-09-09T10:45:17;3.45;;;0.98;;
22172;SDS011;11252;50.596;17.648;2022-09-09T10:47:57;5.05;;;0.82;;
22172;SDS011;11252;50.596;17.648;2022-09-09T10:50:49;1.95;;;0.68;;
22172;SDS011;11252;50.596;17.648;2022-09-09T10:53:35;5.47;;;0.73;;
22172;SDS011;11252;50.596;17.648;2022-09-09T10:56:09;3.00;;;0.80;;
22172;SDS011;11252;50.596;17.648;2022-09-09T10:58:46;4.25;;;0.70;;
22172;SDS011;11252;50.596;17.648;2022-09-09T11:01:22;4.65;;;0.80;;
22172;SDS011;11252;50.596;17.648;2022-09-09T11:04:04;3.72;;;1.27;;
22172;SDS011;11252;50.596;17.648;2022-09-09T11:06:39;1.92;;;0.70;;
22172;SDS011;11252;50.596;17.648;2022-09-09T11:09:13;1.55;;;0.60;;
22172;SDS011;11252;50.596;17.648;2022-09-09T11:17:06;1.27;;;0.68;;
22172;SDS011;11252;50.596;17.648;2022-09-09T11:20:00;1.42;;;0.90;;
22172;SDS011;11252;50.596;17.648;2022-09-09T11:31:00;2.53;;;1.10;;
22172;SDS011;11252;50.596;17.648;2022-09-09T11:41:53;2.95;;;1.25;;
22172;SDS011;11252;50.596;17.648;2022-09-09T11:44:33;2.25;;;0.68;;
22172;SDS011;11252;50.596;17.648;2022-09-09T11:47:00;4.35;;;0.85;;
22172;SDS011;11252;50.596;17.648;2022-09-09T11:52:12;2.22;;;1.00;;
22172;SDS011;11252;50.596;17.648;2022-09-09T11:54:54;1.48;;;0.70;;
22172;SDS011;11252;50.596;17.648;2022-09-09T11:57:24;1.30;;;0.50;;
22172;SDS011;11252;50.596;17.648;2022-09-09T12:00:00;3.17;;;0.77;;
22172;SDS011;11252;50.596;17.648;2022-09-09T12:02:29;2.53;;;0.70;;
22172;SDS011;11252;50.596;17.648;2022-09-09T12:07:37;2.22;;;0.80;;
22172;SDS011;11252;50.596;17.648;2022-09-09T12:10:25;1.88;;;0.60;;
22172;SDS011;11252;50.596;17.648;2022-09-09T12:13:07;1.25;;;0.85;;
22172;SDS011;11252;50.596;17.648;2022-09-09T12:15:52;3.35;;;0.60;;
22172;SDS011;11252;50.596;17.648;2022-09-09T12:24:03;1.85;;;0.80;;
22172;SDS011;11252;50.596;17.648;2022-09-09T12:32:06;1.67;;;0.55;;
22172;SDS011;11252;50.596;17.648;2022-09-09T12:34:41;1.40;;;0.73;;
22172;SDS011;11252;50.596;17.648;2022-09-09T12:37:29;0.63;;;0.60;;
22172;SDS011;11252;50.596;17.648;2022-09-09T12:40:15;3.15;;;0.90;;
22172;SDS011;11252;50.596;17.648;2022-09-09T12:43:18;1.33;;;0.60;;
22172;SDS011;11252;50.596;17.648;2022-09-09T12:45:50;0.95;;;0.70;;
22172;SDS011;11252;50.596;17.648;2022-09-09T12:48:31;2.33;;;0.70;;
22172;SDS011;11252;50.596;17.648;2022-09-09T12:51:01;0.70;;;0.60;;
22172;SDS011;11252;50.596;17.648;2022-09-09T12:53:30;2.63;;;1.00;;
22172;SDS011;11252;50.596;17.648;2022-09-09T12:56:02;3.33;;;1.00;;
22172;SDS011;11252;50.596;17.648;2022-09-09T12:58:35;2.47;;;0.70;;
22172;SDS011;11252;50.596;17.648;2022-09-09T13:01:04;1.83;;;0.70;;
22172;SDS011;11252;50.596;17.648;2022-09-09T13:03:33;1.45;;;0.60;;
22172;SDS011;11252;50.596;17.648;2022-09-09T13:06:16;2.25;;;0.90;;
22172;SDS011;11252;50.596;17.648;2022-09-09T13:08:55;1.15;;;0.70;;
22172;SDS011;11252;50.596;17.648;2022-09-09T13:12:01;3.65;;;0.75;;
22172;SDS011;11252;50.596;17.648;2022-09-09T13:16:57;3.22;;;0.90;;
22172;SDS011;11252;50.596;17.648;2022-09-09T13:19:35;2.00;;;0.80;;
22172;SDS011;11252;50.596;17.648;2022-09-09T13:27:41;1.17;;;0.45;;
22172;SDS011;11252;50.596;17.648;2022-09-09T13:33:03;2.50;;;0.80;;
22172;SDS011;11252;50.596;17.648;2022-09-09T13:35:50;2.20;;;0.70;;
22172;SDS011;11252;50.596;17.648;2022-09-09T13:38:27;2.90;;;0.60;;
22172;SDS011;11252;50.596;17.648;2022-09-09T13:40:57;0.82;;;0.50;;
22172;SDS011;11252;50.596;17.648;2022-09-09T13:43:36;2.03;;;0.88;;
22172;SDS011;11252;50.596;17.648;2022-09-09T13:46:29;2.83;;;0.80;;
22172;SDS011;11252;50.596;17.648;2022-09-09T13:48:59;2.15;;;0.95;;
22172;SDS011;11252;50.596;17.648;2022-09-09T13:51:30;1.00;;;0.50;;
22172;SDS011;11252;50.596;17.648;2022-09-09T13:54:04;2.15;;;0.70;;
22172;SDS011;11252;50.596;17.648;2022-09-09T13:56:33;3.47;;;0.68;;
22172;SDS011;11252;50.596;17.648;2022-09-09T13:59:04;2.40;;;0.63;;
22172;SDS011;11252;50.596;17.648;2022-09-09T14:01:33;2.92;;;0.85;;
22172;SDS011;11252;50.596;17.648;2022-09-09T14:04:04;1.48;;;0.85;;
22172;SDS011;11252;50.596;17.648;2022-09-09T14:06:35;1.50;;;0.80;;
22172;SDS011;11252;50.596;17.648;2022-09-09T14:09:06;3.25;;;1.85;;
22172;SDS011;11252;50.596;17.648;2022-09-09T14:11:42;3.85;;;1.25;;
22172;SDS011;11252;50.596;17.648;2022-09-09T14:14:10;3.88;;;1.30;;
22172;SDS011;11252;50.596;17.648;2022-09-09T14:16:37;6.05;;;3.38;;
22172;SDS011;11252;50.596;17.648;2022-09-09T14:19:05;4.63;;;2.58;;
22172;SDS011;11252;50.596;17.648;2022-09-09T14:21:32;4.78;;;1.85;;
22172;SDS011;11252;50.596;17.648;2022-09-09T14:24:00;2.83;;;1.02;;
22172;SDS011;11252;50.596;17.648;2022-09-09T14:26:28;3.50;;;0.98;;
22172;SDS011;11252;50.596;17.648;2022-09-09T14:28:56;2.83;;;0.88;;
22172;SDS011;11252;50.596;17.648;2022-09-09T14:31:24;3.28;;;1.20;;
22172;SDS011;11252;50.596;17.648;2022-09-09T14:33:52;21.58;;;19.42;;
22172;SDS011;11252;50.596;17.648;2022-09-09T14:36:20;61.75;;;45.63;;
22172;SDS011;11252;50.596;17.648;2022-09-09T14:38:48;8.35;;;7.15;;
22172;SDS011;11252;50.596;17.648;2022-09-09T14:41:16;6.88;;;4.82;;
22172;SDS011;11252;50.596;17.648;2022-09-09T14:43:45;10.25;;;6.53;;
22172;SDS011;11252;50.596;17.648;2022-09-09T14:46:14;8.30;;;5.18;;
22172;SDS011;11252;50.596;17.648;2022-09-09T14:48:47;3.55;;;2.20;;
22172;SDS011;11252;50.596;17.648;2022-09-09T14:51:18;9.35;;;5.90;;
22172;SDS011;11252;50.596;17.648;2022-09-09T14:53:58;1.65;;;1.00;;
22172;SDS011;11252;50.596;17.648;2022-09-09T14:56:26;1.85;;;0.85;;
22172;SDS011;11252;50.596;17.648;2022-09-09T14:58:57;1.45;;;0.90;;
22172;SDS011;11252;50.596;17.648;2022-09-09T15:01:25;1.60;;;1.02;;
22172;SDS011;11252;50.596;17.648;2022-09-09T15:03:54;3.05;;;1.67;;
22172;SDS011;11252;50.596;17.648;2022-09-09T15:06:25;2.45;;;1.35;;
22172;SDS011;11252;50.596;17.648;2022-09-09T15:08:54;3.95;;;1.00;;
22172;SDS011;11252;50.596;17.648;2022-09-09T15:11:25;1.95;;;1.20;;
22172;SDS011;11252;50.596;17.648;2022-09-09T15:13:54;3.25;;;0.82;;
22172;SDS011;11252;50.596;17.648;2022-09-09T15:16:23;4.03;;;2.75;;
22172;SDS011;11252;50.596;17.648;2022-09-09T15:18:54;2.00;;;0.95;;
22172;SDS011;11252;50.596;17.648;2022-09-09T15:21:24;3.15;;;1.40;;
22172;SDS011;11252;50.596;17.648;2022-09-09T15:23:56;3.10;;;2.80;;
22172;SDS011;11252;50.596;17.648;2022-09-09T15:26:24;3.63;;;1.92;;
22172;SDS011;11252;50.596;17.648;2022-09-09T15:28:53;4.40;;;4.00;;
22172;SDS011;11252;50.596;17.648;2022-09-09T15:31:22;3.78;;;2.10;;
22172;SDS011;11252;50.596;17.648;2022-09-09T15:33:52;3.28;;;2.20;;
22172;SDS011;11252;50.596;17.648;2022-09-09T15:39:00;4.78;;;2.00;;
22172;SDS011;11252;50.596;17.648;2022-09-09T15:41:30;1.35;;;1.17;;
22172;SDS011;11252;50.596;17.648;2022-09-09T15:44:00;3.78;;;1.52;;
22172;SDS011;11252;50.596;17.648;2022-09-09T15:46:32;9.15;;;3.85;;
22172;SDS011;11252;50.596;17.648;2022-09-09T15:51:55;29.98;;;19.00;;
22172;SDS011;11252;50.596;17.648;2022-09-09T15:54:34;4.65;;;2.47;;
22172;SDS011;11252;50.596;17.648;2022-09-09T15:57:06;7.43;;;2.30;;
22172;SDS011;11252;50.596;17.648;2022-09-09T15:59:38;7.88;;;2.17;;
22172;SDS011;11252;50.596;17.648;2022-09-09T16:02:06;3.97;;;1.60;;
22172;SDS011;11252;50.596;17.648;2022-09-09T16:04:36;6.47;;;1.40;;
22172;SDS011;11252;50.596;17.648;2022-09-09T16:07:04;9.65;;;2.17;;
22172;SDS011;11252;50.596;17.648;2022-09-09T16:09:32;6.57;;;3.33;;
22172;SDS011;11252;50.596;17.648;2022-09-09T16:12:02;3.30;;;2.10;;
22172;SDS011;11252;50.596;17.648;2022-09-09T16:14:36;9.15;;;2.95;;
22172;SDS011;11252;50.596;17.648;2022-09-09T16:17:05;5.30;;;1.70;;
22172;SDS011;11252;50.596;17.648;2022-09-09T16:19:33;3.47;;;1.70;;
22172;SDS011;11252;50.596;17.648;2022-09-09T16:22:01;4.40;;;2.15;;
22172;SDS011;11252;50.596;17.648;2022-09-09T16:24:30;4.00;;;1.92;;
22172;SDS011;11252;50.596;17.648;2022-09-09T16:26:58;3.70;;;1.95;;
22172;SDS011;11252;50.596;17.648;2022-09-09T16:29:26;3.10;;;1.83;;
22172;SDS011;11252;50.596;17.648;2022-09-09T16:31:53;4.20;;;1.80;;
22172;SDS011;11252;50.596;17.648;2022-09-09T16:34:28;2.08;;;1.30;;
22172;SDS011;11252;50.596;17.648;2022-09-09T16:36:56;4.15;;;1.27;;
22172;SDS011;11252;50.596;17.648;2022-09-09T16:39:24;3.38;;;1.20;;
22172;SDS011;11252;50.596;17.648;2022-09-09T16:41:51;4.35;;;1.70;;
22172;SDS011;11252;50.596;17.648;2022-09-09T16:44:19;6.05;;;2.03;;
22172;SDS011;11252;50.596;17.648;2022-09-09T16:46:47;2.17;;;1.98;;
22172;SDS011;11252;50.596;17.648;2022-09-09T16:49:25;4.55;;;3.00;;
22172;SDS011;11252;50.596;17.648;2022-09-09T16:51:57;3.83;;;2.60;;
22172;SDS011;11252;50.596;17.648;2022-09-09T16:54:25;2.78;;;2.03;;
22172;SDS011;11252;50.596;17.648;2022-09-09T16:56:55;9.10;;;3.15;;
22172;SDS011;11252;50.596;17.648;2022-09-09T16:59:22;6.60;;;3.78;;
22172;SDS011;11252;50.596;17.648;2022-09-09T17:01:53;8.90;;;7.15;;
22172;SDS011;11252;50.596;17.648;2022-09-09T17:04:26;8.77;;;7.70;;
22172;SDS011;11252;50.596;17.648;2022-09-09T17:06:54;8.73;;;6.97;;
22172;SDS011;11252;50.596;17.648;2022-09-09T17:09:24;7.38;;;5.38;;
22172;SDS011;11252;50.596;17.648;2022-09-09T17:11:56;6.82;;;5.15;;
22172;SDS011;11252;50.596;17.648;2022-09-09T17:14:23;3.55;;;3.03;;